createdAt,value
2023-03-18T00:01:30.005Z,98456.78
2023-03-18T00:03:59.279Z,98462.34
2023-03-18T00:06:30.275Z,98453.25
2023-03-18T00:08:59.606Z,98445.38
2023-03-18T00:11:28.704Z,98459.66
2023-03-18T00:13:57.856Z,98453.44
2023-03-18T00:16:29.768Z,98443.69
2023-03-18T00:18:59.045Z,98449.75
2023-03-18T00:21:28.827Z,98456.97
2023-03-18T00:23:59.045Z,98454.28
2023-03-18T00:26:29.417Z,98459.66
2023-03-18T00:28:59.093Z,98452.59
2023-03-18T00:31:29.981Z,98454.28
2023-03-18T00:33:59.189Z,98446.22
2023-03-18T00:36:28.768Z,98437.34
2023-03-18T00:39:04.033Z,98436.47
2023-03-18T00:41:45.034Z,98426.59
2023-03-18T00:44:20.654Z,98425.72
2023-03-18T00:46:51.572Z,98428.41
2023-03-18T00:49:21.346Z,98422.19
2023-03-18T00:51:50.624Z,98420.34
2023-03-18T00:54:21.219Z,98421.22
2023-03-18T00:56:50.837Z,98414.97
2023-03-18T00:59:20.113Z,98413.16
2023-03-18T01:01:50.671Z,98416.66
2023-03-18T01:04:21.949Z,98407.94
2023-03-18T01:06:51.450Z,98407.09
2023-03-18T01:09:21.220Z,98405.94
2023-03-18T01:11:50.423Z,98403.25
2023-03-18T01:14:19.751Z,98395.34
2023-03-18T01:16:50.512Z,98393.47
2023-03-18T01:19:20.365Z,98394.50
2023-03-18T01:21:50.219Z,98388.09
2023-03-18T01:24:19.670Z,98385.63
2023-03-18T01:26:49.184Z,98391.81
2023-03-18T01:29:18.324Z,98389.13
2023-03-18T01:31:47.491Z,98384.59
2023-03-18T01:34:17.897Z,98383.75
2023-03-18T01:36:48.317Z,98384.59
2023-03-18T01:39:18.123Z,98385.63
2023-03-18T01:41:47.447Z,98383.59
2023-03-18T01:44:17.741Z,98386.44
2023-03-18T01:46:49.868Z,98386.44
2023-03-18T01:49:23.191Z,98384.78
2023-03-18T01:51:56.709Z,98374.88
2023-03-18T01:54:26.998Z,98386.44
2023-03-18T01:56:57.016Z,98385.63
2023-03-18T01:59:28.874Z,98368.66
2023-03-18T02:02:05.224Z,98369.50
2023-03-18T02:04:38.728Z,98368.66
2023-03-18T02:07:09.407Z,98379.41
2023-03-18T02:09:38.727Z,98371.34
2023-03-18T02:12:09.123Z,98375.88
2023-03-18T02:14:38.432Z,98370.50
2023-03-18T02:17:10.966Z,98372.34
2023-03-18T02:19:54.517Z,98366.97
2023-03-18T02:22:31.578Z,98364.28
2023-03-18T02:25:13.185Z,98371.34
2023-03-18T02:27:45.738Z,98365.97
2023-03-18T02:30:19.446Z,98361.59
2023-03-18T02:32:49.667Z,98360.78
2023-03-18T02:35:19.077Z,98360.59
2023-03-18T02:37:48.543Z,98357.06
2023-03-18T02:40:20.549Z,98365.97
2023-03-18T02:42:51.761Z,98363.28
2023-03-18T02:45:35.495Z,98365.97
2023-03-18T02:48:05.745Z,98364.28
2023-03-18T02:50:35.601Z,98358.91
2023-03-18T02:53:06.627Z,98357.06
2023-03-18T02:55:36.308Z,98356.22
2023-03-18T02:58:08.216Z,98356.22
2023-03-18T03:00:38.078Z,98365.97
2023-03-18T03:03:08.791Z,98357.91
2023-03-18T03:05:38.951Z,98379.41
2023-03-18T03:08:08.964Z,98371.34
2023-03-18T03:10:38.559Z,98364.28
2023-03-18T03:13:10.528Z,98372.34
2023-03-18T03:15:39.877Z,98370.69
2023-03-18T03:18:10.480Z,98370.50
2023-03-18T03:20:40.105Z,98375.03
2023-03-18T03:23:14.576Z,98366.97
2023-03-18T03:25:45.163Z,98375.03
2023-03-18T03:28:16.790Z,98380.41
2023-03-18T03:30:46.249Z,98376.06
2023-03-18T03:33:15.737Z,98382.25
2023-03-18T03:35:44.589Z,98383.09
2023-03-18T03:38:13.218Z,98379.56
2023-03-18T03:40:41.988Z,98379.72
2023-03-18T03:43:15.047Z,98381.44
2023-03-18T03:45:43.985Z,98370.69
2023-03-18T03:48:12.793Z,98373.38
2023-03-18T03:50:42.025Z,98385.09
2023-03-18T03:53:11.542Z,98380.59
2023-03-18T03:55:40.367Z,98380.59
2023-03-18T03:58:09.529Z,98387.78
2023-03-18T04:00:39.573Z,98393.16
2023-03-18T04:03:08.420Z,98381.59
2023-03-18T04:05:37.326Z,98385.09
2023-03-18T04:08:06.653Z,98391.34
2023-03-18T04:10:36.792Z,98378.91
2023-03-18T04:13:05.425Z,98378.91
2023-03-18T04:15:34.326Z,98381.59
2023-03-18T04:18:07.328Z,98383.44
2023-03-18T04:20:36.683Z,98394.03
2023-03-18T04:23:05.211Z,98388.81
2023-03-18T04:25:33.968Z,98390.47
2023-03-18T04:28:02.585Z,98391.34
2023-03-18T04:30:32.454Z,98386.97
2023-03-18T04:33:01.988Z,98387.78
2023-03-18T04:35:32.092Z,98386.97
2023-03-18T04:38:01.047Z,98385.09
2023-03-18T04:40:30.574Z,98383.44
2023-03-18T04:42:59.391Z,98391.34
2023-03-18T04:45:28.305Z,98392.34
2023-03-18T04:47:56.837Z,98387.78
2023-03-18T04:50:25.672Z,98380.75
2023-03-18T04:52:55.958Z,98392.53
2023-03-18T04:55:24.681Z,98392.34
2023-03-18T04:57:53.636Z,98388.81
2023-03-18T05:00:23.830Z,98394.19
2023-03-18T05:02:52.569Z,98401.22
2023-03-18T05:05:21.284Z,98390.66
2023-03-18T05:07:50.045Z,98394.19
2023-03-18T05:10:20.286Z,98393.16
2023-03-18T05:12:49.895Z,98399.56
2023-03-18T05:15:19.512Z,98399.56
2023-03-18T05:17:48.113Z,98393.16
2023-03-18T05:20:16.859Z,98394.19
2023-03-18T05:22:46.003Z,98405.75
2023-03-18T05:25:15.082Z,98394.19
2023-03-18T05:27:45.007Z,98400.59
2023-03-18T05:30:15.515Z,98396.88
2023-03-18T05:32:44.255Z,98402.25
2023-03-18T05:35:13.018Z,98402.09
2023-03-18T05:37:41.756Z,98400.38
2023-03-18T05:40:12.891Z,98413.81
2023-03-18T05:42:57.133Z,98408.28
2023-03-18T05:45:27.595Z,98409.13
2023-03-18T05:47:57.358Z,98412.84
2023-03-18T05:50:33.247Z,98412.63
2023-03-18T05:53:02.059Z,98421.53
2023-03-18T05:55:30.870Z,98422.41
2023-03-18T05:58:00.442Z,98418.69
2023-03-18T06:00:31.100Z,98424.06
2023-03-18T06:02:59.882Z,98432.13
2023-03-18T06:05:28.727Z,98425.72
2023-03-18T06:07:57.673Z,98421.22
2023-03-18T06:10:26.755Z,98424.72
2023-03-18T06:12:56.472Z,98427.41
2023-03-18T06:15:25.915Z,98427.41
2023-03-18T06:17:56.386Z,98431.75
2023-03-18T06:20:25.082Z,98426.41
2023-03-18T06:22:53.660Z,98426.41
2023-03-18T06:25:23.434Z,98427.22
2023-03-18T06:27:52.375Z,98428.09
2023-03-18T06:30:21.530Z,98431.59
2023-03-18T06:32:50.122Z,98428.72
2023-03-18T06:35:20.325Z,98440.31
2023-03-18T06:37:48.841Z,98446.53
2023-03-18T06:40:17.552Z,98443.00
2023-03-18T06:42:46.630Z,98440.97
2023-03-18T06:45:17.167Z,98443.66
2023-03-18T06:47:46.667Z,98448.06
2023-03-18T06:50:15.435Z,98440.97
2023-03-18T06:52:45.409Z,98443.84
2023-03-18T06:55:15.041Z,98446.88
2023-03-18T06:57:45.740Z,98452.75
2023-03-18T07:00:16.164Z,98459.16
2023-03-18T07:02:45.850Z,98459.97
2023-03-18T07:05:14.874Z,98462.84
2023-03-18T07:07:46.330Z,98473.56
2023-03-18T07:10:21.795Z,98470.88
2023-03-18T07:12:50.533Z,98473.22
2023-03-18T07:15:21.150Z,98492.22
2023-03-18T07:17:49.804Z,98490.53
2023-03-18T07:20:19.268Z,98478.09
2023-03-18T07:22:49.654Z,98485.47
2023-03-18T07:25:18.351Z,98485.00
2023-03-18T07:27:47.142Z,98478.78
2023-03-18T07:30:18.095Z,98485.16
2023-03-18T07:32:47.081Z,98485.97
2023-03-18T07:35:15.865Z,98482.47
2023-03-18T07:37:45.035Z,98487.50
2023-03-18T07:40:16.933Z,98483.81
2023-03-18T07:42:45.670Z,98478.09
2023-03-18T07:45:14.279Z,98477.25
2023-03-18T07:47:43.504Z,98479.94
2023-03-18T07:50:13.663Z,98474.56
2023-03-18T07:52:42.247Z,98472.59
2023-03-18T07:55:12.049Z,98479.63
2023-03-18T07:57:42.286Z,98478.94
2023-03-18T08:00:12.552Z,98480.78
2023-03-18T08:02:42.413Z,98479.94
2023-03-18T08:05:11.835Z,98481.63
2023-03-18T08:07:40.656Z,98480.66
2023-03-18T08:10:12.614Z,98471.56
2023-03-18T08:12:52.589Z,98480.47
2023-03-18T08:15:22.108Z,98479.78
2023-03-18T08:17:51.253Z,98476.09
2023-03-18T08:20:20.209Z,98476.09
2023-03-18T08:22:50.100Z,98474.41
2023-03-18T08:25:18.887Z,98470.72
2023-03-18T08:27:48.803Z,98469.72
2023-03-18T08:30:17.437Z,98472.22
2023-03-18T08:32:46.540Z,98481.13
2023-03-18T08:35:15.153Z,98475.75
2023-03-18T08:37:43.790Z,98473.91
2023-03-18T08:40:14.131Z,98477.25
2023-03-18T08:42:42.742Z,98482.63
2023-03-18T08:45:13.519Z,98472.56
2023-03-18T08:47:42.720Z,98474.22
2023-03-18T08:50:13.332Z,98462.63
2023-03-18T08:52:42.353Z,98477.94
2023-03-18T08:55:11.597Z,98484.13
2023-03-18T08:57:40.245Z,98468.84
2023-03-18T09:00:11.582Z,98476.22
2023-03-18T09:02:41.719Z,98472.38
2023-03-18T09:05:13.738Z,98479.44
2023-03-18T09:07:42.432Z,98471.38
2023-03-18T09:10:14.415Z,98469.31
2023-03-18T09:12:43.435Z,98463.94
2023-03-18T09:15:13.081Z,98467.31
2023-03-18T09:18:00.014Z,98453.03
2023-03-18T09:20:32.913Z,98465.66
2023-03-18T09:23:02.421Z,98462.75
2023-03-18T09:25:31.355Z,98457.38
2023-03-18T09:28:00.963Z,98460.91
2023-03-18T09:30:30.295Z,98455.53
2023-03-18T09:33:00.422Z,98452.84
2023-03-18T09:35:29.859Z,98448.34
2023-03-18T09:37:58.624Z,98452.00
2023-03-18T09:40:29.025Z,98453.88
2023-03-18T09:43:12.264Z,98451.19
2023-03-18T09:45:47.089Z,98448.13
2023-03-18T09:48:46.096Z,98441.94
2023-03-18T09:51:24.423Z,98453.72
2023-03-18T09:53:55.254Z,98455.38
2023-03-18T09:56:25.980Z,98444.63
2023-03-18T09:58:57.606Z,98439.91
2023-03-18T10:01:27.840Z,98440.06
2023-03-18T10:04:02.135Z,98442.59
2023-03-18T10:06:30.743Z,98447.47
2023-03-18T10:09:05.821Z,98444.63
2023-03-18T10:11:36.946Z,98445.09
2023-03-18T10:14:21.711Z,98438.72
2023-03-18T10:17:09.464Z,98444.09
2023-03-18T10:19:39.613Z,98435.84
2023-03-18T10:22:47.474Z,98431.97
2023-03-18T10:25:21.407Z,98427.97
2023-03-18T10:28:01.872Z,98422.59
2023-03-18T10:30:39.821Z,98431.31
2023-03-18T10:33:14.149Z,98421.56
2023-03-18T10:35:48.940Z,98418.22
2023-03-18T10:38:21.680Z,98422.59
2023-03-18T10:40:50.460Z,98419.91
2023-03-18T10:43:20.678Z,98418.22
2023-03-18T10:45:50.718Z,98416.88
2023-03-18T10:48:22.323Z,98413.16
2023-03-18T10:51:07.693Z,98414.34
2023-03-18T10:53:39.930Z,98412.00
2023-03-18T10:56:09.677Z,98413.19
2023-03-18T10:58:39.338Z,98410.69
2023-03-18T11:01:08.876Z,98410.69
2023-03-18T11:03:39.740Z,98416.06
2023-03-18T11:06:18.881Z,98409.84
2023-03-18T11:08:49.452Z,98422.44
2023-03-18T11:11:27.745Z,98416.25
2023-03-18T11:13:58.311Z,98415.22
2023-03-18T11:16:31.813Z,98417.91
2023-03-18T11:19:01.320Z,98408.19
2023-03-18T11:21:31.646Z,98409.84
2023-03-18T11:24:10.725Z,98413.56
2023-03-18T11:26:53.803Z,98409.00
2023-03-18T11:29:25.320Z,98399.28
2023-03-18T11:31:58.162Z,98398.25
2023-03-18T11:34:27.133Z,98400.94
2023-03-18T11:37:01.297Z,98399.28
2023-03-18T11:39:31.666Z,98396.59
2023-03-18T11:42:00.916Z,98396.59
2023-03-18T11:44:32.098Z,98390.38
2023-03-18T11:47:13.785Z,98388.69
2023-03-18T11:49:43.983Z,98383.16
2023-03-18T11:52:37.821Z,98384.16
2023-03-18T11:55:14.058Z,98379.63
2023-03-18T11:57:59.774Z,98376.28
2023-03-18T12:00:30.679Z,98369.06
2023-03-18T12:03:30.667Z,98377.94
2023-03-18T12:06:06.716Z,98376.94
2023-03-18T12:08:48.012Z,98368.88
2023-03-18T12:11:23.516Z,98367.03
2023-03-18T12:14:00.226Z,98365.19
2023-03-18T12:16:41.406Z,98363.50
2023-03-18T12:19:36.868Z,98353.75
2023-03-18T12:22:20.474Z,98359.97
2023-03-18T12:25:03.656Z,98350.91
2023-03-18T12:27:39.282Z,98354.91
2023-03-18T12:30:50.927Z,98351.38
2023-03-18T12:33:34.100Z,98353.91
2023-03-18T12:36:08.145Z,98347.84
2023-03-18T12:39:26.417Z,98347.69
2023-03-18T12:42:03.067Z,98345.00
2023-03-18T12:44:47.758Z,98337.56
2023-03-18T12:47:19.931Z,98330.19
2023-03-18T12:49:50.515Z,98334.53
2023-03-18T12:52:28.516Z,98324.81
2023-03-18T12:55:02.542Z,98323.97
2023-03-18T12:57:42.179Z,98321.09
2023-03-18T13:00:23.962Z,98317.78
2023-03-18T13:03:07.261Z,98317.78
2023-03-18T13:05:43.940Z,98322.31
2023-03-18T13:09:02.961Z,98322.63
2023-03-18T13:11:53.840Z,98316.44
2023-03-18T13:14:28.940Z,98310.69
2023-03-18T13:16:58.603Z,98315.25
2023-03-18T13:19:27.329Z,98308.69
2023-03-18T13:22:01.697Z,98304.13
2023-03-18T13:24:54.131Z,98310.34
2023-03-18T13:28:04.069Z,98314.19
2023-03-18T13:30:41.494Z,98308.97
2023-03-18T13:33:41.347Z,98310.84
2023-03-18T13:36:50.827Z,98301.09
2023-03-18T13:39:27.107Z,98302.94
2023-03-18T13:42:26.965Z,98309.16
2023-03-18T13:45:04.829Z,98302.94
2023-03-18T13:47:37.910Z,98303.97
2023-03-18T13:50:23.910Z,98301.28
2023-03-18T13:52:55.314Z,98301.28
2023-03-18T13:55:32.075Z,98301.28
2023-03-18T13:58:19.290Z,98296.91
2023-03-18T14:01:10.693Z,98295.91
2023-03-18T14:06:55.769Z,98284.94
2023-03-18T14:09:36.410Z,98283.75
2023-03-18T14:12:19.089Z,98277.91
2023-03-18T14:15:09.446Z,98285.50
2023-03-18T14:17:47.792Z,98273.06
2023-03-18T14:20:38.152Z,98290.88
2023-03-18T14:23:40.613Z,98282.16
2023-03-18T14:26:19.382Z,98285.69
2023-03-18T14:28:49.772Z,98277.81
2023-03-18T14:31:33.620Z,98279.47
2023-03-18T14:34:29.351Z,98278.63
2023-03-18T14:37:30.393Z,98275.94
2023-03-18T14:40:07.373Z,98285.88
2023-03-18T14:42:54.326Z,98272.59
2023-03-18T14:45:26.162Z,98279.63
2023-03-18T14:47:56.161Z,98269.75
2023-03-18T14:50:32.913Z,98268.88
2023-03-18T14:53:06.650Z,98269.91
2023-03-18T14:55:37.228Z,98276.13
2023-03-18T14:58:06.078Z,98273.44
2023-03-18T15:00:36.397Z,98267.22
2023-03-18T15:03:08.409Z,98266.41
2023-03-18T15:05:39.176Z,98267.38
2023-03-18T15:08:15.177Z,98270.94
2023-03-18T15:10:47.475Z,98268.25
2023-03-18T15:13:18.285Z,98265.56
2023-03-18T15:15:47.156Z,98278.16
2023-03-18T15:18:20.813Z,98272.75
2023-03-18T15:20:52.286Z,98267.38
2023-03-18T15:23:23.979Z,98269.25
2023-03-18T15:25:54.209Z,98264.69
2023-03-18T15:28:24.777Z,98270.06
2023-03-18T15:30:56.121Z,98268.41
2023-03-18T15:33:26.289Z,98271.94
2023-03-18T15:35:58.837Z,98270.28
2023-03-18T15:38:28.850Z,98267.59
2023-03-18T15:41:00.043Z,98270.28
2023-03-18T15:43:35.919Z,98267.59
2023-03-18T15:46:08.776Z,98270.28
2023-03-18T15:48:40.086Z,98265.72
2023-03-18T15:51:22.275Z,98266.75
2023-03-18T15:53:53.868Z,98275.66
2023-03-18T15:56:29.498Z,98276.47
2023-03-18T15:59:07.172Z,98278.50
2023-03-18T16:01:36.360Z,98276.66
2023-03-18T16:04:06.414Z,98282.03
2023-03-18T16:06:35.445Z,98282.88
2023-03-18T16:09:14.375Z,98287.59
2023-03-18T16:11:45.494Z,98292.78
2023-03-18T16:14:17.472Z,98291.94
2023-03-18T16:16:46.345Z,98299.00
2023-03-18T16:19:16.881Z,98297.31
2023-03-18T16:21:45.845Z,98301.03
2023-03-18T16:24:14.489Z,98299.19
2023-03-18T16:26:46.289Z,98301.03
2023-03-18T16:29:19.148Z,98307.44
2023-03-18T16:31:47.933Z,98310.13
2023-03-18T16:34:17.346Z,98309.25
2023-03-18T16:36:46.209Z,98304.75
2023-03-18T16:39:19.747Z,98314.63
2023-03-18T16:41:49.842Z,98313.81
2023-03-18T16:44:19.827Z,98314.63
2023-03-18T16:46:50.191Z,98317.31
2023-03-18T16:49:22.321Z,98316.50
2023-03-18T16:51:51.742Z,98311.13
2023-03-18T16:54:22.513Z,98313.81
2023-03-18T16:56:55.123Z,98319.19
2023-03-18T16:59:25.014Z,98331.78
2023-03-18T17:01:54.255Z,98330.94
2023-03-18T17:04:26.288Z,98331.94
2023-03-18T17:06:55.263Z,98322.88
2023-03-18T17:09:25.070Z,98331.13
2023-03-18T17:11:57.499Z,98323.06
2023-03-18T17:14:31.885Z,98331.94
2023-03-18T17:17:02.071Z,98327.59
2023-03-18T17:19:31.184Z,98329.25
2023-03-18T17:21:59.767Z,98338.34
2023-03-18T17:24:28.673Z,98334.00
2023-03-18T17:26:58.710Z,98334.81
2023-03-18T17:29:29.612Z,98335.66
2023-03-18T17:31:58.357Z,98334.00
2023-03-18T17:34:27.177Z,98336.69
2023-03-18T17:36:56.595Z,98345.56
2023-03-18T17:39:25.540Z,98344.75
2023-03-18T17:41:54.420Z,98350.94
2023-03-18T17:44:29.283Z,98348.25
2023-03-18T17:46:58.746Z,98350.94
2023-03-18T17:49:28.305Z,98360.00
2023-03-18T17:51:57.132Z,98357.16
2023-03-18T17:54:27.552Z,98352.81
2023-03-18T17:56:56.292Z,98351.13
2023-03-18T17:59:26.345Z,98351.13
2023-03-18T18:01:55.282Z,98348.44
2023-03-18T18:04:24.882Z,98360.00
2023-03-18T18:06:54.447Z,98348.44
2023-03-18T18:09:23.377Z,98346.56
2023-03-18T18:11:52.040Z,98347.59
2023-03-18T18:14:23.380Z,98352.13
2023-03-18T18:16:54.141Z,98358.34
2023-03-18T18:19:24.536Z,98347.59
2023-03-18T18:21:53.392Z,98345.06
2023-03-18T18:24:24.660Z,98351.13
2023-03-18T18:26:53.428Z,98344.25
2023-03-18T18:29:24.896Z,98351.31
2023-03-18T18:31:54.862Z,98350.28
2023-03-18T18:34:23.601Z,98357.50
2023-03-18T18:36:52.270Z,98350.44
2023-03-18T18:39:21.076Z,98350.44
2023-03-18T18:41:49.873Z,98350.63
2023-03-18T18:44:19.280Z,98348.78
2023-03-18T18:46:47.986Z,98344.25
2023-03-18T18:49:23.114Z,98343.41
2023-03-18T18:51:53.423Z,98348.78
2023-03-18T18:54:22.329Z,98347.94
2023-03-18T18:56:50.989Z,98347.13
2023-03-18T18:59:24.523Z,98354.16
2023-03-18T19:01:53.308Z,98354.16
2023-03-18T19:04:23.815Z,98350.63
2023-03-18T19:06:52.901Z,98349.81
2023-03-18T19:09:23.255Z,98362.22
2023-03-18T19:11:51.996Z,98357.88
2023-03-18T19:14:24.560Z,98358.69
2023-03-18T19:16:53.763Z,98357.88
2023-03-18T19:19:26.743Z,98357.03
2023-03-18T19:21:55.377Z,98357.03
2023-03-18T19:24:29.476Z,98363.25
2023-03-18T19:26:59.436Z,98361.72
2023-03-18T19:29:28.104Z,98368.25
2023-03-18T19:31:56.946Z,98363.56
2023-03-18T19:34:27.103Z,98362.53
2023-03-18T19:36:56.077Z,98366.56
2023-03-18T19:39:24.887Z,98368.38
2023-03-18T19:41:53.489Z,98365.88
2023-03-18T19:44:23.374Z,98370.59
2023-03-18T19:46:53.374Z,98363.72
2023-03-18T19:49:26.411Z,98372.81
2023-03-18T19:51:56.153Z,98368.25
2023-03-18T19:54:31.535Z,98377.31
2023-03-18T19:57:01.502Z,98379.00
2023-03-18T19:59:38.234Z,98377.81
2023-03-18T20:02:22.034Z,98379.69
2023-03-18T20:04:52.587Z,98370.75
2023-03-18T20:07:22.006Z,98371.78
2023-03-18T20:09:50.688Z,98377.81
2023-03-18T20:12:25.100Z,98379.84
2023-03-18T20:14:53.827Z,98370.94
2023-03-18T20:17:36.070Z,98373.78
2023-03-18T20:20:07.884Z,98372.97
2023-03-18T20:22:38.155Z,98379.38
2023-03-18T20:25:09.327Z,98384.75
2023-03-18T20:27:38.088Z,98384.75
2023-03-18T20:30:22.065Z,98388.41
2023-03-18T20:32:51.167Z,98388.41
2023-03-18T20:35:21.440Z,98388.41
2023-03-18T20:37:50.422Z,98392.09
2023-03-18T20:40:22.841Z,98393.78
2023-03-18T20:42:52.725Z,98387.59
2023-03-18T20:45:22.322Z,98392.97
2023-03-18T20:47:51.137Z,98397.47
2023-03-18T20:50:23.105Z,98392.09
2023-03-18T20:52:52.430Z,98392.09
2023-03-18T20:55:23.867Z,98397.47
2023-03-18T20:57:52.936Z,98391.28
2023-03-18T21:00:24.083Z,98392.09
2023-03-18T21:02:53.768Z,98397.47
2023-03-18T21:05:24.008Z,98397.47
2023-03-18T21:07:52.748Z,98394.94
2023-03-18T21:10:23.428Z,98400.31
2023-03-18T21:12:52.383Z,98407.41
2023-03-18T21:15:22.835Z,98400.31
2023-03-18T21:17:51.498Z,98395.81
2023-03-18T21:20:24.055Z,98401.19
2023-03-18T21:22:52.810Z,98388.75
2023-03-18T21:25:22.940Z,98389.56
2023-03-18T21:27:52.576Z,98393.28
2023-03-18T21:30:23.942Z,98388.75
2023-03-18T21:32:52.634Z,98388.75
2023-03-18T21:35:26.501Z,98377.16
2023-03-18T21:37:55.170Z,98379.03
2023-03-18T21:40:24.847Z,98378.81
2023-03-18T21:42:53.434Z,98387.09
2023-03-18T21:45:23.800Z,98370.97
2023-03-18T21:47:53.262Z,98375.50
2023-03-18T21:50:25.385Z,98380.69
2023-03-18T21:52:54.765Z,98370.97
2023-03-18T21:55:23.629Z,98363.91
2023-03-18T21:57:52.222Z,98371.78
2023-03-18T22:00:22.428Z,98370.13
2023-03-18T22:02:51.103Z,98376.34
2023-03-18T22:05:20.837Z,98368.28
2023-03-18T22:07:51.498Z,98374.63
2023-03-18T22:10:21.373Z,98371.94
2023-03-18T22:12:50.049Z,98374.63
2023-03-18T22:15:38.067Z,98378.19
2023-03-18T22:18:07.420Z,98372.81
2023-03-18T22:20:36.441Z,98374.63
2023-03-18T22:23:16.488Z,98374.63
2023-03-18T22:25:45.746Z,98380.88
2023-03-18T22:28:14.375Z,98386.25
2023-03-18T22:30:43.650Z,98373.81
2023-03-18T22:33:20.185Z,98374.63
2023-03-18T22:35:49.164Z,98373.81
2023-03-18T22:38:20.817Z,98372.97
2023-03-18T22:40:54.137Z,98377.53
2023-03-18T22:43:30.052Z,98384.56
2023-03-18T22:45:58.992Z,98378.19
2023-03-18T22:48:28.030Z,98379.19
2023-03-18T22:50:58.532Z,98374.63
2023-03-18T22:53:30.033Z,98370.44
2023-03-18T22:55:58.872Z,98378.34
2023-03-18T22:58:28.364Z,98374.84
2023-03-18T23:00:57.313Z,98372.16
2023-03-18T23:03:29.379Z,98369.47
2023-03-18T23:05:58.934Z,98370.28
2023-03-18T23:08:28.967Z,98372.16
2023-03-18T23:10:58.223Z,98377.53
2023-03-18T23:13:29.303Z,98377.53
2023-03-18T23:15:58.402Z,98371.31
2023-03-18T23:18:27.022Z,98374.84
2023-03-18T23:20:55.657Z,98375.81
2023-03-18T23:23:24.380Z,98374.84
2023-03-18T23:25:54.401Z,98377.69
2023-03-18T23:28:22.898Z,98370.44
2023-03-18T23:30:53.357Z,98369.63
2023-03-18T23:33:22.010Z,98376.69
2023-03-18T23:35:50.699Z,98374.84
2023-03-18T23:38:19.433Z,98380.38
2023-03-18T23:40:48.901Z,98375.00
2023-03-18T23:43:18.812Z,98379.38
2023-03-18T23:45:47.879Z,98375.81
2023-03-18T23:48:16.652Z,98372.31
2023-03-18T23:50:45.368Z,98375.00
2023-03-18T23:53:13.927Z,98373.34
2023-03-18T23:55:42.444Z,98376.03
2023-03-18T23:58:11.008Z,98376.03
